Terminal Aerodrome Forecast
Issued by NWS Cleveland, OH

Current Version | Previous Version | Text Only | Print | Product List | Glossary On
Versions: 1 2 3 4 5 6 7 8 9 10 11 12
000
FTUS41 KCLE 051729
TAFTOL
TAF
KTOL 051729Z 0518/0618 12005KT P6SM FEW250
     FM060800 15002KT 6SM BR SCT250
     FM061500 23004KT P6SM SKC=

USA.gov is the U.S. government's official web portal to all federal, state and local government web resources and services.